Terminal Aerodrome Forecast
Issued by NWS

Home | Current Version | Previous Version | Text Only | Print | Product List | Glossary On
Versions: 1 2 3 4 5 6 7 8 9 10 11 12
000
FTUS46 KSTO 260526
TAFMHR
TAF
KMHR 260526Z 2606/2706 16009KT P6SM SKC
     FM261700 20009KT P6SM SCT250
     FM270000 22012G19KT P6SM SKC=

USA.gov is the U.S. government's official web portal to all federal, state and local government web resources and services.